Time;durP1;ratioP1;P1;durP2;ratioP2;P2;SDS_P1;SDS_P2;PMS_P1;PMS_P2;Temp;Humidity;BMP_temperature;BMP_pressure;BME280_temperature;BME280_humidity;BME280_pressure;Samples;Min_cycle;Max_cycle;Signal;HPM_P1;HPM_P2
2022/09/02 00:01:48;;;;;;;2.90;2.10;;;15.60;99.90;;;;;;5048383;28;21176;-79
2022/09/02 00:04:17;;;;;;;4.10;2.30;;;15.60;99.90;;;;;;5044983;28;20697;-79
2022/09/02 00:06:46;;;;;;;2.20;2.00;;;15.60;99.90;;;;;;5049496;28;20703;-80
2022/09/02 00:09:16;;;;;;;3.07;2.50;;;15.60;99.90;;;;;;5047056;28;21224;-80
2022/09/02 00:11:45;;;;;;;2.70;2.40;;;15.50;99.90;;;;;;5050257;28;21020;-80
2022/09/02 00:14:14;;;;;;;2.70;2.50;;;15.50;99.90;;;;;;5046702;28;20707;-80
2022/09/02 00:16:43;;;;;;;2.70;2.50;;;15.40;99.90;;;;;;5046514;28;21035;-80
2022/09/02 00:19:12;;;;;;;2.27;2.17;;;15.40;99.90;;;;;;5047015;28;21044;-79
2022/09/02 00:21:39;;;;;;;3.47;2.30;;;15.20;99.90;;;;;;5047753;28;20614;-79
2022/09/02 00:24:08;;;;;;;3.30;3.00;;;15.20;99.90;;;;;;5049608;28;20656;-80
2022/09/02 00:26:37;;;;;;;2.80;2.60;;;15.10;99.90;;;;;;5046249;28;21311;-80
2022/09/02 00:29:14;;;;;;;2.77;2.57;;;15.10;99.90;;;;;;5051524;28;20649;-79
2022/09/02 00:31:41;;;;;;;2.43;2.23;;;15.10;99.90;;;;;;5047295;28;20633;-80
2022/09/02 00:34:09;;;;;;;2.60;2.40;;;15.10;99.90;;;;;;5048734;28;20652;-80
2022/09/02 00:36:41;;;;;;;3.37;2.53;;;15.10;99.90;;;;;;5046147;28;21224;-80
2022/09/02 00:39:08;;;;;;;2.70;2.50;;;15.00;99.90;;;;;;5046912;28;20762;-81
2022/09/02 00:41:38;;;;;;;2.40;2.20;;;14.90;99.90;;;;;;5047359;28;20754;-78
2022/09/02 00:44:07;;;;;;;3.40;2.30;;;14.90;99.90;;;;;;5047720;28;20661;-79
2022/09/02 00:46:35;;;;;;;3.00;2.70;;;14.90;99.90;;;;;;5047534;28;20711;-80
2022/09/02 00:49:05;;;;;;;2.70;2.50;;;14.80;99.90;;;;;;5048918;28;20626;-79
2022/09/02 00:51:40;;;;;;;2.70;2.10;;;14.80;99.90;;;;;;5046414;28;21131;-79
2022/09/02 00:54:10;;;;;;;2.30;2.13;;;14.70;99.90;;;;;;5048141;28;20590;-80
2022/09/02 00:56:38;;;;;;;2.60;2.40;;;14.70;99.90;;;;;;5046183;28;21230;-79
2022/09/02 00:59:07;;;;;;;2.83;2.57;;;14.60;99.90;;;;;;5046887;28;20626;-80
2022/09/02 01:01:34;;;;;;;4.40;3.07;;;14.60;99.90;;;;;;5048351;28;20720;-79
2022/09/02 01:04:01;;;;;;;4.30;2.47;;;14.60;99.90;;;;;;5047071;28;20711;-79
2022/09/02 01:06:31;;;;;;;2.67;2.30;;;14.50;99.90;;;;;;5043518;28;20658;-79
2022/09/02 01:09:07;;;;;;;4.20;2.50;;;14.50;99.90;;;;;;5047104;28;20630;-80
2022/09/02 01:11:40;;;;;;;2.93;2.60;;;14.50;99.90;;;;;;5045493;28;20640;-80
2022/09/02 01:14:11;;;;;;;2.97;2.77;;;14.40;99.90;;;;;;5046190;28;20724;-79
2022/09/02 01:16:45;;;;;;;2.90;2.63;;;14.30;99.90;;;;;;5046832;28;21291;-79
2022/09/02 01:19:23;;;;;;;2.47;2.27;;;14.30;99.90;;;;;;5046296;28;20720;-80
2022/09/02 01:21:56;;;;;;;2.17;2.03;;;14.30;99.90;;;;;;5042280;28;21062;-79
2022/09/02 01:24:26;;;;;;;2.70;2.50;;;14.30;99.90;;;;;;5049265;28;21256;-80
2022/09/02 01:26:55;;;;;;;2.43;2.07;;;14.30;99.90;;;;;;5046318;28;21257;-80
2022/09/02 01:29:24;;;;;;;4.93;2.47;;;14.30;99.90;;;;;;5046400;28;21491;-80
2022/09/02 01:31:52;;;;;;;2.43;2.23;;;14.30;99.90;;;;;;5048135;28;20637;-79
2022/09/02 01:34:19;;;;;;;3.17;2.47;;;14.30;99.90;;;;;;5047422;28;21086;-79
2022/09/02 01:36:46;;;;;;;2.37;2.20;;;14.40;99.90;;;;;;5042483;28;20745;-79
2022/09/02 01:39:15;;;;;;;2.40;2.20;;;14.50;99.90;;;;;;5045228;28;20634;-79
2022/09/02 01:41:42;;;;;;;3.20;2.23;;;14.60;99.90;;;;;;5047521;28;20717;-79
2022/09/02 01:44:11;;;;;;;2.03;1.93;;;14.50;99.90;;;;;;5047831;28;20757;-79
2022/09/02 01:46:38;;;;;;;2.43;2.23;;;14.60;99.90;;;;;;5044940;28;20734;-79
2022/09/02 01:49:06;;;;;;;3.00;2.03;;;14.60;99.90;;;;;;5046822;28;21009;-79
2022/09/02 01:51:33;;;;;;;2.50;2.13;;;14.60;99.90;;;;;;5045963;28;20643;-79
2022/09/02 01:54:00;;;;;;;2.00;1.90;;;14.60;99.90;;;;;;5045841;28;20646;-79
2022/09/02 01:56:37;;;;;;;2.43;2.20;;;14.60;99.90;;;;;;5044025;28;20658;-79
2022/09/02 01:59:06;;;;;;;2.13;2.00;;;14.70;99.90;;;;;;5045638;28;21195;-81
2022/09/02 02:01:34;;;;;;;1.90;1.80;;;14.60;99.90;;;;;;5045197;28;21374;-80
2022/09/02 02:04:03;;;;;;;2.60;2.20;;;14.50;99.90;;;;;;5045167;28;21142;-80
2022/09/02 02:06:29;;;;;;;1.80;1.70;;;14.50;99.90;;;;;;5044059;28;20657;-81
2022/09/02 02:08:56;;;;;;;2.57;2.13;;;14.40;99.90;;;;;;5046435;28;20626;-79
2022/09/02 02:11:25;;;;;;;2.37;2.10;;;14.40;99.90;;;;;;5043394;28;20655;-81
2022/09/02 02:13:53;;;;;;;3.90;2.00;;;14.30;99.90;;;;;;5044673;28;20661;-80
2022/09/02 02:16:20;;;;;;;2.83;1.83;;;14.20;99.90;;;;;;5044490;28;20664;-80
2022/09/02 02:18:47;;;;;;;2.30;2.10;;;14.20;99.90;;;;;;5040565;28;20707;-80
2022/09/02 02:21:14;;;;;;;2.10;2.00;;;14.10;99.90;;;;;;5043635;28;20687;-80
2022/09/02 02:23:41;;;;;;;2.43;2.03;;;14.00;99.90;;;;;;5044685;28;20727;-80
2022/09/02 02:26:08;;;;;;;2.93;1.93;;;14.00;99.90;;;;;;5044182;28;20692;-80
2022/09/02 02:28:35;;;;;;;3.27;2.43;;;13.90;99.90;;;;;;5045122;28;20735;-80
2022/09/02 02:31:04;;;;;;;3.93;2.40;;;13.90;99.90;;;;;;5045092;28;20637;-80
2022/09/02 02:33:32;;;;;;;2.07;1.90;;;13.80;99.90;;;;;;5044097;28;20623;-78
2022/09/02 02:35:59;;;;;;;2.20;2.10;;;13.80;99.90;;;;;;5044512;28;20649;-79
2022/09/02 02:38:26;;;;;;;2.80;2.27;;;13.70;99.90;;;;;;5041947;28;20645;-79
2022/09/02 02:40:55;;;;;;;3.73;2.50;;;13.60;99.90;;;;;;5046225;28;20669;-78
2022/09/02 02:43:21;;;;;;;4.23;2.30;;;13.60;99.90;;;;;;5042433;28;20642;-78
2022/09/02 02:45:48;;;;;;;2.27;2.17;;;13.50;99.90;;;;;;5045483;28;20673;-79
2022/09/02 02:48:17;;;;;;;2.73;2.23;;;13.50;99.90;;;;;;5043073;28;20614;-79
2022/09/02 02:50:44;;;;;;;2.80;2.37;;;13.40;99.90;;;;;;5044258;28;20626;-78
2022/09/02 02:53:11;;;;;;;5.50;3.27;;;13.40;99.90;;;;;;5044175;28;20622;-78
2022/09/02 02:55:38;;;;;;;2.20;2.00;;;13.40;99.90;;;;;;5044585;28;21134;-78
2022/09/02 02:58:06;;;;;;;4.30;2.37;;;13.30;99.90;;;;;;5043470;28;20633;-78
2022/09/02 03:00:35;;;;;;;2.97;2.70;;;13.30;99.90;;;;;;5043295;28;20718;-79
2022/09/02 03:03:04;;;;;;;2.90;2.57;;;13.20;99.90;;;;;;5044657;28;20634;-79
2022/09/02 03:05:34;;;;;;;2.40;2.30;;;13.20;99.90;;;;;;5042420;28;20683;-79
2022/09/02 03:08:02;;;;;;;2.30;2.10;;;13.10;99.90;;;;;;5045801;28;21056;-79
2022/09/02 03:10:31;;;;;;;3.13;2.80;;;13.10;99.90;;;;;;5043330;28;20645;-79
2022/09/02 03:12:58;;;;;;;4.10;3.50;;;13.10;99.90;;;;;;5043957;28;20644;-79
2022/09/02 03:15:26;;;;;;;2.80;2.13;;;13.10;99.90;;;;;;5043293;28;20650;-78
2022/09/02 03:17:53;;;;;;;2.67;2.47;;;13.10;99.90;;;;;;5043875;28;20632;-79
2022/09/02 03:20:21;;;;;;;2.50;2.30;;;13.10;99.90;;;;;;5042774;28;20634;-79
2022/09/02 03:22:50;;;;;;;2.33;2.13;;;13.00;99.90;;;;;;5043314;28;20630;-79
2022/09/02 03:25:19;;;;;;;2.80;2.60;;;13.00;99.90;;;;;;5041897;28;20674;-79
2022/09/02 03:27:46;;;;;;;2.17;2.07;;;13.00;99.90;;;;;;5044762;28;20626;-79
2022/09/02 03:30:17;;;;;;;1.87;1.77;;;12.90;99.90;;;;;;5051165;28;20629;-78
2022/09/02 03:32:44;;;;;;;3.13;2.30;;;12.90;99.90;;;;;;5050474;28;20630;-79
2022/09/02 03:35:14;;;;;;;2.30;2.10;;;12.90;99.90;;;;;;5051097;28;20657;-79
2022/09/02 03:37:41;;;;;;;2.40;2.20;;;12.90;99.90;;;;;;5048870;28;20629;-79
2022/09/02 03:40:12;;;;;;;3.93;2.50;;;12.90;99.90;;;;;;5052444;28;20646;-79
2022/09/02 03:42:39;;;;;;;1.80;1.70;;;12.90;99.90;;;;;;5050569;28;20720;-79
2022/09/02 03:45:09;;;;;;;3.13;2.03;;;12.90;99.90;;;;;;5048040;28;20684;-79
2022/09/02 03:47:39;;;;;;;2.20;2.00;;;12.90;99.90;;;;;;5049781;28;22323;-79
2022/09/02 03:50:08;;;;;;;4.30;2.10;;;12.80;99.90;;;;;;5052155;28;20626;-79
2022/09/02 03:52:35;;;;;;;3.10;2.10;;;12.80;99.90;;;;;;5047790;28;20629;-79
2022/09/02 03:55:03;;;;;;;2.30;1.90;;;12.90;99.90;;;;;;5050074;28;20661;-79
2022/09/02 03:57:31;;;;;;;5.10;3.10;;;12.80;99.90;;;;;;5048031;28;20633;-79
2022/09/02 03:59:58;;;;;;;2.57;2.33;;;12.70;99.90;;;;;;5051010;28;20627;-79
2022/09/02 04:02:25;;;;;;;3.43;2.23;;;12.90;99.90;;;;;;5051340;28;20638;-79
2022/09/02 04:04:53;;;;;;;2.63;1.97;;;12.90;99.90;;;;;;5049502;28;21021;-79
2022/09/02 04:07:20;;;;;;;2.40;2.20;;;12.90;99.90;;;;;;5047818;28;20630;-79
2022/09/02 04:09:47;;;;;;;3.30;2.00;;;12.90;99.90;;;;;;5050775;28;20626;-79
2022/09/02 04:12:14;;;;;;;2.90;2.10;;;12.90;99.90;;;;;;5048962;28;20638;-79
2022/09/02 04:14:42;;;;;;;2.37;2.17;;;12.80;99.90;;;;;;5047183;28;21233;-79
2022/09/02 04:21:18;;;;;;;2.27;2.07;;;12.60;99.90;;;;;;5046602;28;20584;-79
2022/09/02 04:23:46;;;;;;;5.40;2.67;;;12.60;99.90;;;;;;5053754;28;20992;-79
2022/09/02 04:26:14;;;;;;;2.33;2.23;;;12.80;99.90;;;;;;5049690;28;21272;-79
2022/09/02 04:28:41;;;;;;;2.60;2.50;;;12.60;99.90;;;;;;5051424;28;20625;-80
2022/09/02 04:31:12;;;;;;;4.33;2.50;;;12.80;99.90;;;;;;5050655;28;21222;-79
2022/09/02 04:33:39;;;;;;;2.90;2.70;;;12.80;99.90;;;;;;5050339;28;20636;-79
2022/09/02 04:36:09;;;;;;;3.40;2.77;;;12.80;99.90;;;;;;5050800;28;20661;-79
2022/09/02 04:38:36;;;;;;;2.60;2.50;;;12.80;99.90;;;;;;5049150;28;21189;-79
2022/09/02 04:41:08;;;;;;;2.10;2.00;;;12.80;99.90;;;;;;5047772;28;20626;-79
2022/09/02 04:43:34;;;;;;;2.67;2.47;;;12.70;99.90;;;;;;5046170;28;20712;-79
2022/09/02 04:46:06;;;;;;;3.50;2.70;;;12.70;99.90;;;;;;5045087;28;20673;-79
2022/09/02 04:48:36;;;;;;;2.70;2.60;;;12.70;99.90;;;;;;5047532;28;21215;-80
2022/09/02 04:51:06;;;;;;;2.27;2.17;;;12.70;99.90;;;;;;5046693;28;20653;-80
2022/09/02 04:53:33;;;;;;;2.60;2.40;;;12.60;99.90;;;;;;5046181;28;20701;-80
2022/09/02 04:56:02;;;;;;;3.97;2.80;;;12.70;99.90;;;;;;5046237;28;20645;-79
2022/09/02 04:58:29;;;;;;;3.43;2.23;;;12.70;99.90;;;;;;5044640;28;20659;-80
2022/09/02 05:00:56;;;;;;;2.77;2.50;;;12.70;99.90;;;;;;5046683;28;20745;-79
2022/09/02 05:03:23;;;;;;;3.63;3.33;;;12.80;99.90;;;;;;5046543;28;20725;-79
2022/09/02 05:06:00;;;;;;;2.97;2.67;;;12.80;99.90;;;;;;5046328;28;21115;-79
2022/09/02 05:08:27;;;;;;;2.97;2.77;;;12.80;99.90;;;;;;5044401;28;21185;-79
2022/09/02 05:10:54;;;;;;;4.27;2.50;;;12.90;99.90;;;;;;5046972;28;20620;-79
2022/09/02 05:13:21;;;;;;;3.20;2.90;;;12.90;99.90;;;;;;5043207;28;20636;-79
2022/09/02 05:15:48;;;;;;;2.70;2.50;;;12.90;99.90;;;;;;5047176;28;20702;-79
2022/09/02 05:18:15;;;;;;;4.50;2.60;;;13.00;99.90;;;;;;5044368;28;20637;-79
2022/09/02 05:20:42;;;;;;;2.80;2.40;;;12.80;99.90;;;;;;5045286;28;20967;-80
2022/09/02 05:23:11;;;;;;;3.17;2.60;;;13.20;99.90;;;;;;5046420;28;20633;-79
2022/09/02 05:25:38;;;;;;;4.77;2.73;;;13.30;99.90;;;;;;5045339;28;20681;-80
2022/09/02 05:28:07;;;;;;;2.80;2.43;;;13.40;99.90;;;;;;5046552;28;20952;-79
2022/09/02 05:30:34;;;;;;;4.10;2.50;;;13.50;99.90;;;;;;5044761;28;20642;-80
2022/09/02 05:33:01;;;;;;;2.80;2.60;;;13.50;99.90;;;;;;5045794;28;21171;-79
2022/09/02 05:35:28;;;;;;;3.20;2.53;;;13.60;99.90;;;;;;5044442;28;20664;-79
2022/09/02 05:37:55;;;;;;;3.63;2.87;;;13.70;99.90;;;;;;5045045;28;21132;-79
2022/09/02 05:40:23;;;;;;;2.70;2.40;;;13.80;99.90;;;;;;5044946;28;21253;-80
2022/09/02 05:42:51;;;;;;;4.87;2.40;;;13.80;99.90;;;;;;5039395;28;20630;-80
2022/09/02 05:45:22;;;;;;;3.17;2.50;;;13.90;99.90;;;;;;5041702;28;20670;-80
2022/09/02 05:47:51;;;;;;;2.80;2.47;;;13.90;99.90;;;;;;5037205;28;20675;-79
2022/09/02 05:50:19;;;;;;;3.17;2.57;;;14.00;99.90;;;;;;5041052;28;20637;-80
2022/09/02 05:52:49;;;;;;;2.30;2.17;;;14.00;99.90;;;;;;5041247;28;20634;-80
2022/09/02 05:55:16;;;;;;;2.57;2.37;;;14.10;99.90;;;;;;5039701;28;20676;-79
2022/09/02 05:57:45;;;;;;;3.30;2.10;;;14.10;99.90;;;;;;5043782;28;20660;-80
2022/09/02 06:00:13;;;;;;;2.60;2.40;;;14.20;99.90;;;;;;5040732;28;21193;-79
2022/09/02 06:02:41;;;;;;;2.37;2.17;;;14.30;99.90;;;;;;5043401;28;20653;-79
2022/09/02 06:05:10;;;;;;;4.10;2.50;;;14.40;99.90;;;;;;5039600;28;21052;-79
2022/09/02 06:07:37;;;;;;;2.93;2.20;;;14.50;99.90;;;;;;5039046;28;20698;-79
2022/09/02 06:10:06;;;;;;;3.17;2.97;;;14.60;99.90;;;;;;5041313;28;20634;-80
2022/09/02 06:12:33;;;;;;;3.73;2.93;;;14.70;99.90;;;;;;5038384;28;20667;-79
2022/09/02 06:15:01;;;;;;;4.80;2.80;;;14.80;99.90;;;;;;5041119;28;20936;-79
2022/09/02 06:17:28;;;;;;;3.90;2.90;;;14.80;99.90;;;;;;5041045;28;20659;-80
2022/09/02 06:19:55;;;;;;;3.27;2.97;;;15.00;99.90;;;;;;5041100;28;20634;-80
2022/09/02 06:22:22;;;;;;;4.13;3.00;;;15.00;99.90;;;;;;5038832;28;20631;-79
2022/09/02 06:24:49;;;;;;;3.30;3.00;;;15.10;99.90;;;;;;5036444;28;20617;-80
2022/09/02 06:27:15;;;;;;;3.90;2.80;;;15.20;99.90;;;;;;5039300;28;20709;-79
2022/09/02 06:29:42;;;;;;;5.43;2.90;;;15.30;99.90;;;;;;5037202;28;20636;-80
2022/09/02 06:32:11;;;;;;;2.67;2.47;;;15.40;99.90;;;;;;5038894;28;20637;-80
2022/09/02 06:34:38;;;;;;;5.30;2.80;;;15.50;99.90;;;;;;5043202;28;20626;-80
2022/09/02 06:37:05;;;;;;;2.43;2.23;;;15.60;99.90;;;;;;5043776;28;20660;-80
2022/09/02 06:39:32;;;;;;;5.57;2.87;;;15.70;99.90;;;;;;5035159;28;20629;-80
2022/09/02 06:41:59;;;;;;;3.77;2.57;;;15.70;99.90;;;;;;5041005;28;20665;-80
2022/09/02 06:44:28;;;;;;;2.90;2.70;;;15.80;99.90;;;;;;5041743;28;20653;-79
2022/09/02 06:46:57;;;;;;;3.00;2.70;;;15.90;99.90;;;;;;5040729;28;20669;-79
2022/09/02 06:49:27;;;;;;;2.47;2.30;;;16.00;99.90;;;;;;5039953;28;20630;-79
2022/09/02 06:51:55;;;;;;;2.87;2.67;;;16.10;99.90;;;;;;5038017;28;20657;-79
2022/09/02 06:54:23;;;;;;;1.90;1.80;;;16.20;99.90;;;;;;5041491;28;20776;-79
2022/09/02 06:56:51;;;;;;;3.43;2.80;;;16.30;99.90;;;;;;5034807;28;20629;-79
2022/09/02 06:59:18;;;;;;;2.63;2.40;;;16.50;99.90;;;;;;5039067;28;20653;-79
2022/09/02 07:01:45;;;;;;;3.30;2.00;;;16.50;99.90;;;;;;5038683;28;20650;-79
2022/09/02 07:06:58;;;;;;;2.17;2.07;;;16.70;99.90;;;;;;5034696;28;20661;-79
2022/09/02 07:09:29;;;;;;;2.70;1.87;;;16.90;99.90;;;;;;5044573;28;20641;-79
2022/09/02 07:11:58;;;;;;;2.40;1.80;;;16.90;99.90;;;;;;5042849;28;20665;-79
2022/09/02 07:14:26;;;;;;;2.13;2.03;;;17.10;99.90;;;;;;5036504;28;20644;-78
2022/09/02 07:16:54;;;;;;;1.90;1.80;;;17.10;99.90;;;;;;5040875;28;20652;-78
2022/09/02 07:19:21;;;;;;;5.20;2.57;;;17.20;99.90;;;;;;5038950;28;20658;-79
2022/09/02 07:21:49;;;;;;;2.40;2.20;;;17.30;99.90;;;;;;5036180;28;20982;-78
2022/09/02 07:24:18;;;;;;;2.73;2.47;;;17.50;99.90;;;;;;5037540;28;20633;-78
2022/09/02 07:26:45;;;;;;;2.73;2.53;;;17.60;99.90;;;;;;5040194;28;20662;-78
2022/09/02 07:29:12;;;;;;;2.27;1.87;;;17.60;99.90;;;;;;5039620;28;20737;-79
2022/09/02 07:31:41;;;;;;;2.70;2.20;;;17.70;99.90;;;;;;5038409;28;21024;-79
2022/09/02 07:34:11;;;;;;;3.07;2.03;;;17.80;99.90;;;;;;5041579;28;20705;-79
2022/09/02 07:36:39;;;;;;;2.13;1.60;;;17.90;99.90;;;;;;5039339;28;21200;-79
2022/09/02 07:39:08;;;;;;;2.10;1.67;;;18.00;99.90;;;;;;5039246;28;20939;-79
2022/09/02 07:41:38;;;;;;;3.73;1.90;;;18.10;99.90;;;;;;5036799;28;20661;-78
2022/09/02 07:44:05;;;;;;;2.77;1.63;;;18.10;99.90;;;;;;5037081;28;20634;-79
2022/09/02 07:46:32;;;;;;;3.23;1.90;;;18.20;99.90;;;;;;5037823;28;20676;-79
2022/09/02 07:49:00;;;;;;;3.30;1.83;;;18.30;99.90;;;;;;5039855;28;21151;-79
2022/09/02 07:51:27;;;;;;;2.23;2.13;;;18.40;99.90;;;;;;5040280;28;20681;-79
2022/09/02 07:53:54;;;;;;;5.37;1.97;;;18.40;99.90;;;;;;5037938;28;20631;-79
2022/09/02 07:56:21;;;;;;;6.00;2.60;;;18.50;99.90;;;;;;5037327;28;20840;-78
2022/09/02 07:58:49;;;;;;;2.73;1.73;;;18.60;99.90;;;;;;5039668;28;20634;-80
2022/09/02 08:01:17;;;;;;;10.97;1.90;;;18.70;99.90;;;;;;5043071;28;20789;-79
2022/09/02 08:03:44;;;;;;;4.20;2.33;;;18.60;99.90;;;;;;5037405;28;20634;-79
2022/09/02 08:06:12;;;;;;;4.37;1.97;;;18.70;99.90;;;;;;5035596;28;20757;-79
2022/09/02 08:08:40;;;;;;;1.73;1.63;;;18.80;99.90;;;;;;5042541;28;20719;-79
2022/09/02 08:11:08;;;;;;;1.50;1.40;;;18.90;99.90;;;;;;5039558;28;20771;-79
2022/09/02 08:13:36;;;;;;;1.67;1.47;;;19.00;99.90;;;;;;5040519;28;20639;-79
2022/09/02 08:16:05;;;;;;;1.40;1.30;;;19.00;99.90;;;;;;5038160;28;20629;-79
2022/09/02 08:18:33;;;;;;;2.60;1.67;;;19.00;99.90;;;;;;5041948;28;21023;-80
2022/09/02 08:21:00;;;;;;;7.00;1.97;;;19.10;99.90;;;;;;5043289;28;20653;-79
2022/09/02 08:23:27;;;;;;;1.57;1.47;;;19.30;99.90;;;;;;5042428;28;20642;-79
2022/09/02 08:25:54;;;;;;;4.50;1.50;;;19.40;99.90;;;;;;5039785;28;20670;-79
2022/09/02 08:28:21;;;;;;;2.60;2.00;;;19.40;99.90;;;;;;5042649;28;20630;-79
2022/09/02 08:30:47;;;;;;;3.57;1.63;;;19.50;99.90;;;;;;5042903;28;20672;-79
2022/09/02 08:33:16;;;;;;;2.90;1.30;;;19.50;99.90;;;;;;5042131;28;20614;-79
2022/09/02 08:35:42;;;;;;;1.50;1.30;;;19.60;99.90;;;;;;5045068;28;20996;-79
2022/09/02 08:38:09;;;;;;;1.70;1.60;;;19.70;99.90;;;;;;5041725;28;20634;-79
2022/09/02 08:40:39;;;;;;;2.87;1.40;;;19.80;99.90;;;;;;5042080;28;20659;-79
2022/09/02 08:43:28;;;;;;;1.50;1.40;;;19.80;99.90;;;;;;5044981;28;20642;-79
2022/09/02 08:45:58;;;;;;;1.20;1.10;;;19.90;99.90;;;;;;5041965;28;20655;-80
2022/09/02 08:48:34;;;;;;;5.43;1.17;;;20.00;99.90;;;;;;5041656;28;21140;-80
2022/09/02 08:51:06;;;;;;;1.90;1.50;;;19.90;99.90;;;;;;5045998;28;20660;-79
2022/09/02 08:53:39;;;;;;;3.80;1.27;;;20.00;99.90;;;;;;5041087;28;20733;-79
2022/09/02 08:56:12;;;;;;;1.27;1.17;;;20.20;99.90;;;;;;5040537;28;20971;-79
2022/09/02 08:58:42;;;;;;;3.27;1.30;;;20.30;99.90;;;;;;5045769;28;20637;-79
2022/09/02 09:01:18;;;;;;;1.47;1.37;;;20.40;99.90;;;;;;5042376;28;20653;-79
2022/09/02 09:04:09;;;;;;;1.90;1.73;;;20.40;99.90;;;;;;5039779;28;20641;-79
2022/09/02 09:06:47;;;;;;;2.03;1.90;;;20.50;99.90;;;;;;5027224;28;20668;-79
2022/09/02 09:09:23;;;;;;;3.60;1.40;;;20.60;99.80;;;;;;5043657;28;20626;-79
2022/09/02 09:11:58;;;;;;;1.77;1.50;;;20.60;97.00;;;;;;5038641;28;20737;-79
2022/09/02 09:14:33;;;;;;;3.80;1.80;;;20.60;97.80;;;;;;5039230;28;20633;-79
2022/09/02 09:17:02;;;;;;;1.57;0.90;;;20.60;96.30;;;;;;5043100;28;20622;-79
2022/09/02 09:19:43;;;;;;;1.80;1.20;;;20.60;95.50;;;;;;5040696;28;20726;-79
2022/09/02 09:22:12;;;;;;;1.60;1.23;;;20.70;95.10;;;;;;5037271;28;20654;-79
2022/09/02 09:24:43;;;;;;;1.50;1.40;;;20.80;94.00;;;;;;5042425;28;20626;-79
2022/09/02 09:27:13;;;;;;;1.30;1.20;;;20.80;95.00;;;;;;5040573;28;20761;-79
2022/09/02 09:29:40;;;;;;;1.40;0.93;;;20.80;94.20;;;;;;5040212;28;20633;-79
2022/09/02 09:32:17;;;;;;;2.40;1.10;;;20.90;96.20;;;;;;5044171;28;20688;-79
2022/09/02 09:35:01;;;;;;;1.40;1.20;;;21.00;93.10;;;;;;5044179;28;20616;-79
2022/09/02 09:37:35;;;;;;;1.30;1.20;;;21.10;92.50;;;;;;5039389;28;20658;-79
2022/09/02 09:40:20;;;;;;;1.47;1.37;;;21.20;90.90;;;;;;5037683;28;20621;-79
2022/09/02 09:42:48;;;;;;;3.53;1.30;;;21.30;90.90;;;;;;5044028;28;20630;-78
2022/09/02 09:45:20;;;;;;;1.20;1.10;;;21.30;92.00;;;;;;5039363;28;20626;-79
2022/09/02 09:48:10;;;;;;;4.40;1.20;;;21.30;86.60;;;;;;5040894;28;20669;-79
2022/09/02 09:50:38;;;;;;;1.73;1.20;;;21.40;88.40;;;;;;5042034;28;20653;-79
2022/09/02 09:53:15;;;;;;;3.10;1.17;;;21.50;87.90;;;;;;5039633;28;20664;-79
2022/09/02 09:55:52;;;;;;;4.03;0.97;;;21.60;89.80;;;;;;5039431;28;20624;-78
2022/09/02 09:58:21;;;;;;;2.07;1.10;;;21.70;85.30;;;;;;5040437;28;20741;-79
2022/09/02 10:00:48;;;;;;;2.10;1.00;;;21.60;76.00;;;;;;5042201;28;21238;-79
2022/09/02 10:03:23;;;;;;;4.80;1.10;;;21.60;76.60;;;;;;5043785;28;21380;-80
2022/09/02 10:05:54;;;;;;;5.03;1.00;;;21.60;74.10;;;;;;5039291;28;20626;-79
2022/09/02 10:08:24;;;;;;;0.90;0.90;;;21.60;77.30;;;;;;5042989;28;21097;-78
2022/09/02 10:11:00;;;;;;;0.90;0.90;;;21.80;69.00;;;;;;5041446;28;20953;-78
2022/09/02 10:13:29;;;;;;;2.70;1.10;;;21.80;68.80;;;;;;5044073;28;20630;-78
2022/09/02 10:16:15;;;;;;;1.40;0.90;;;21.90;69.10;;;;;;5042602;28;20622;-79
2022/09/02 10:18:50;;;;;;;1.50;1.07;;;22.10;66.30;;;;;;5044608;28;20614;-79
2022/09/02 10:21:39;;;;;;;1.43;0.93;;;22.30;66.80;;;;;;5043648;28;20665;-79
2022/09/02 10:24:19;;;;;;;1.93;1.03;;;22.40;65.30;;;;;;5044571;28;20621;-79
2022/09/02 10:26:49;;;;;;;1.00;0.90;;;22.50;63.20;;;;;;5044182;28;20653;-79
2022/09/02 10:29:48;;;;;;;1.20;1.00;;;22.70;65.10;;;;;;5044461;28;20745;-79
2022/09/02 10:32:25;;;;;;;0.93;0.90;;;22.90;62.20;;;;;;5042953;28;20646;-78
2022/09/02 10:35:03;;;;;;;1.70;0.80;;;22.90;61.00;;;;;;5040901;28;21176;-79
2022/09/02 10:37:43;;;;;;;0.80;0.63;;;23.10;61.50;;;;;;5043608;28;20611;-79
2022/09/02 10:40:13;;;;;;;0.70;0.70;;;23.30;60.40;;;;;;5044220;28;20625;-79
2022/09/02 10:42:58;;;;;;;1.00;1.00;;;23.60;60.10;;;;;;5044304;28;20699;-79
2022/09/02 10:45:34;;;;;;;6.60;1.00;;;23.70;59.40;;;;;;5040337;28;20629;-79
2022/09/02 10:48:15;;;;;;;1.10;1.10;;;23.80;59.90;;;;;;5042875;28;20661;-78
2022/09/02 10:50:48;;;;;;;3.77;0.80;;;24.00;58.40;;;;;;5043158;28;20652;-79
2022/09/02 10:53:30;;;;;;;3.27;0.90;;;24.20;59.30;;;;;;5042695;28;20660;-79
2022/09/02 10:56:02;;;;;;;1.57;0.80;;;24.50;59.00;;;;;;5039823;28;21000;-79
2022/09/02 10:58:42;;;;;;;1.47;1.10;;;24.90;59.30;;;;;;5041433;28;20606;-79
2022/09/02 11:01:14;;;;;;;2.30;1.60;;;25.40;59.70;;;;;;5043702;28;20654;-79
2022/09/02 11:03:48;;;;;;;1.33;0.80;;;25.80;57.00;;;;;;5043541;28;20659;-79
2022/09/02 11:06:21;;;;;;;2.03;0.87;;;26.10;54.30;;;;;;5040603;28;20633;-79
2022/09/02 11:08:52;;;;;;;1.23;1.00;;;26.30;53.40;;;;;;5042271;28;20658;-79
2022/09/02 11:11:22;;;;;;;1.40;0.90;;;26.60;55.00;;;;;;5042644;28;20768;-79
2022/09/02 11:14:02;;;;;;;1.10;1.00;;;26.60;51.40;;;;;;5043326;28;20625;-79
2022/09/02 11:16:33;;;;;;;1.40;1.07;;;26.80;52.50;;;;;;5039870;28;20646;-79
2022/09/02 11:19:07;;;;;;;1.07;0.90;;;26.80;50.50;;;;;;5040912;28;20626;-79
2022/09/02 11:21:48;;;;;;;2.10;1.03;;;27.00;50.10;;;;;;5041793;28;20756;-79
2022/09/02 11:24:22;;;;;;;1.30;1.20;;;27.30;50.30;;;;;;5041862;28;20641;-79
2022/09/02 11:26:55;;;;;;;2.70;1.30;;;27.70;50.20;;;;;;5035328;28;20967;-79
2022/09/02 11:29:33;;;;;;;4.43;1.20;;;28.00;49.40;;;;;;5042195;28;21272;-79
2022/09/02 11:32:07;;;;;;;2.47;1.20;;;28.40;49.80;;;;;;5043588;28;20664;-79
2022/09/02 11:34:40;;;;;;;3.33;1.60;;;28.60;48.20;;;;;;5040520;28;20737;-79
2022/09/02 11:37:08;;;;;;;2.03;1.47;;;28.80;47.20;;;;;;5042899;28;21207;-79
2022/09/02 11:39:42;;;;;;;1.83;1.10;;;28.70;46.10;;;;;;5042831;28;22410;-79
2022/09/02 11:42:22;;;;;;;1.10;1.00;;;28.60;46.30;;;;;;5040881;28;20646;-79
2022/09/02 11:45:17;;;;;;;1.90;1.17;;;29.00;46.30;;;;;;5037824;28;20714;-79
2022/09/02 11:48:06;;;;;;;5.33;1.50;;;29.20;44.70;;;;;;5045738;28;20666;-78
2022/09/02 11:50:54;;;;;;;1.40;1.30;;;29.50;46.00;;;;;;5043069;28;20631;-79
2022/09/02 11:53:25;;;;;;;6.03;1.20;;;29.80;44.40;;;;;;5046973;28;20630;-79
2022/09/02 11:55:55;;;;;;;1.93;1.17;;;30.10;43.80;;;;;;5048679;28;21024;-79
2022/09/02 11:58:34;;;;;;;1.60;1.30;;;30.40;42.90;;;;;;5045447;28;20939;-79
2022/09/02 12:01:22;;;;;;;1.73;1.10;;;30.30;41.60;;;;;;5043829;28;21020;-79
2022/09/02 12:03:54;;;;;;;2.10;1.23;;;30.20;41.80;;;;;;5043118;28;20629;-79
2022/09/02 12:06:21;;;;;;;3.00;1.30;;;30.50;41.30;;;;;;5043745;28;20641;-79
2022/09/02 12:09:10;;;;;;;1.50;1.00;;;30.40;41.80;;;;;;5046983;28;20709;-79
2022/09/02 12:11:46;;;;;;;1.50;1.40;;;30.40;42.00;;;;;;5049172;28;20661;-79
2022/09/02 12:15:03;;;;;;;1.57;1.47;;;30.40;41.20;;;;;;5045038;28;21056;-79
2022/09/02 12:18:10;;;;;;;3.47;1.40;;;30.70;41.10;;;;;;5044150;28;21107;-79
2022/09/02 12:21:14;;;;;;;2.20;1.03;;;30.90;40.20;;;;;;5045342;28;20661;-80
2022/09/02 12:24:17;;;;;;;2.77;1.70;;;31.50;40.40;;;;;;5044843;28;20626;-79
2022/09/02 12:27:11;;;;;;;1.30;1.20;;;31.70;38.20;;;;;;5031595;28;21050;-79
2022/09/02 12:29:38;;;;;;;2.30;1.20;;;31.50;38.80;;;;;;5047331;28;20617;-79
2022/09/02 12:32:05;;;;;;;1.40;1.30;;;31.50;39.30;;;;;;5045604;28;20781;-79
2022/09/02 12:34:55;;;;;;;1.87;1.40;;;32.00;38.70;;;;;;5044138;28;20629;-80
2022/09/02 12:37:53;;;;;;;1.50;1.40;;;31.70;38.90;;;;;;5044701;28;20644;-79
2022/09/02 12:40:29;;;;;;;2.10;1.00;;;31.50;39.00;;;;;;5046140;28;20637;-79
2022/09/02 12:43:02;;;;;;;3.73;1.40;;;31.80;39.30;;;;;;5042573;28;20620;-79
2022/09/02 12:45:32;;;;;;;1.40;1.30;;;31.90;38.80;;;;;;5045955;28;20715;-79
2022/09/02 12:48:02;;;;;;;1.40;1.10;;;32.00;38.10;;;;;;5046320;28;21122;-79
2022/09/02 12:50:34;;;;;;;2.10;1.33;;;32.10;37.40;;;;;;5045276;28;20626;-80
2022/09/02 12:53:20;;;;;;;1.50;1.20;;;32.60;38.10;;;;;;5046549;28;21381;-80
2022/09/02 12:55:55;;;;;;;1.70;1.60;;;32.60;36.70;;;;;;5045890;28;20620;-80
2022/09/02 12:58:24;;;;;;;1.40;1.30;;;32.60;37.30;;;;;;5042779;28;21004;-79
2022/09/02 13:01:00;;;;;;;1.57;1.47;;;32.10;37.60;;;;;;5040979;28;20645;-80
2022/09/02 13:04:09;;;;;;;2.57;1.53;;;32.30;37.70;;;;;;5041461;28;20630;-79
2022/09/02 13:07:05;;;;;;;1.90;1.33;;;32.30;37.00;;;;;;5045230;28;21065;-79
2022/09/02 13:09:47;;;;;;;3.17;1.23;;;32.50;37.70;;;;;;5044028;28;20636;-79
2022/09/02 13:12:53;;;;;;;1.63;1.50;;;33.00;36.90;;;;;;5043275;28;20699;-79
2022/09/02 13:15:33;;;;;;;3.87;1.40;;;33.50;36.70;;;;;;4985803;28;20670;-79
2022/09/02 13:18:35;;;;;;;1.70;1.33;;;34.00;36.00;;;;;;5040764;28;20651;-80